Terminal Aerodrome Forecast
Issued by NWS

Home | Current Version | Previous Version | Text Only | Print | Product List | Glossary On
Versions: 1 2 3 4 5 6 7 8 9 10 11 12 13 14 15 16 17 18 19 20 21 22 23 24 25
000
FTUS41 KPBZ 311100
TAFAGC
TAF
KAGC 311133Z 3112/0112 24006KT P6SM SCT030
      TEMPO 3112/3115 BKN030
     FM312100 25006KT P6SM SCT030 BKN250
     FM010400 22005KT P6SM BKN040
     FM010900 21004KT 5SM -SN OVC020
     FM011100 20005KT 2SM -SN OVC008=

USA.gov is the U.S. government's official web portal to all federal, state and local government web resources and services.